sensor_id;sensor_type;location;lat;lon;timestamp;P1;durP1;ratioP1;P2;durP2;ratioP2
21729;SDS011;11027;51.030;13.812;2023-06-22T00:01:15;7.45;;;6.25;;
21729;SDS011;11027;51.030;13.812;2023-06-22T00:03:40;7.45;;;6.43;;
21729;SDS011;11027;51.030;13.812;2023-06-22T00:06:06;7.65;;;6.38;;
21729;SDS011;11027;51.030;13.812;2023-06-22T00:08:31;8.43;;;6.75;;
21729;SDS011;11027;51.030;13.812;2023-06-22T00:10:56;8.15;;;6.30;;
21729;SDS011;11027;51.030;13.812;2023-06-22T00:13:22;8.80;;;6.53;;
21729;SDS011;11027;51.030;13.812;2023-06-22T00:15:47;10.02;;;6.50;;
21729;SDS011;11027;51.030;13.812;2023-06-22T00:18:12;7.30;;;6.60;;
21729;SDS011;11027;51.030;13.812;2023-06-22T00:20:38;7.22;;;6.22;;
21729;SDS011;11027;51.030;13.812;2023-06-22T00:23:04;8.30;;;6.35;;
21729;SDS011;11027;51.030;13.812;2023-06-22T00:25:37;6.68;;;6.07;;
21729;SDS011;11027;51.030;13.812;2023-06-22T00:28:04;8.57;;;6.53;;
21729;SDS011;11027;51.030;13.812;2023-06-22T00:30:31;7.70;;;6.78;;
21729;SDS011;11027;51.030;13.812;2023-06-22T00:32:57;6.85;;;6.22;;
21729;SDS011;11027;51.030;13.812;2023-06-22T00:35:23;6.35;;;5.75;;
21729;SDS011;11027;51.030;13.812;2023-06-22T00:37:57;10.35;;;7.00;;
21729;SDS011;11027;51.030;13.812;2023-06-22T00:40:25;7.57;;;6.70;;
21729;SDS011;11027;51.030;13.812;2023-06-22T00:42:55;7.30;;;6.60;;
21729;SDS011;11027;51.030;13.812;2023-06-22T00:45:21;7.05;;;6.30;;
21729;SDS011;11027;51.030;13.812;2023-06-22T00:47:48;8.48;;;6.43;;
21729;SDS011;11027;51.030;13.812;2023-06-22T00:50:18;6.88;;;6.18;;
21729;SDS011;11027;51.030;13.812;2023-06-22T00:52:53;7.47;;;6.78;;
21729;SDS011;11027;51.030;13.812;2023-06-22T00:55:24;7.65;;;6.68;;
21729;SDS011;11027;51.030;13.812;2023-06-22T00:57:51;10.02;;;6.88;;
21729;SDS011;11027;51.030;13.812;2023-06-22T01:00:20;9.43;;;6.93;;
21729;SDS011;11027;51.030;13.812;2023-06-22T01:02:49;9.23;;;6.50;;
21729;SDS011;11027;51.030;13.812;2023-06-22T01:05:17;8.75;;;6.53;;
21729;SDS011;11027;51.030;13.812;2023-06-22T01:08:00;7.40;;;6.65;;
21729;SDS011;11027;51.030;13.812;2023-06-22T01:10:50;8.30;;;7.00;;
21729;SDS011;11027;51.030;13.812;2023-06-22T01:16:03;7.32;;;6.60;;
21729;SDS011;11027;51.030;13.812;2023-06-22T01:18:32;10.50;;;6.80;;
21729;SDS011;11027;51.030;13.812;2023-06-22T01:21:01;10.50;;;7.07;;
21729;SDS011;11027;51.030;13.812;2023-06-22T01:26:06;9.52;;;6.10;;
21729;SDS011;11027;51.030;13.812;2023-06-22T01:28:43;7.23;;;5.80;;
21729;SDS011;11027;51.030;13.812;2023-06-22T01:31:12;9.40;;;7.25;;
21729;SDS011;11027;51.030;13.812;2023-06-22T01:33:42;7.47;;;6.13;;
21729;SDS011;11027;51.030;13.812;2023-06-22T01:36:08;7.60;;;6.55;;
21729;SDS011;11027;51.030;13.812;2023-06-22T01:38:35;8.00;;;6.75;;
21729;SDS011;11027;51.030;13.812;2023-06-22T01:41:02;7.60;;;6.80;;
21729;SDS011;11027;51.030;13.812;2023-06-22T01:43:28;7.53;;;6.50;;
21729;SDS011;11027;51.030;13.812;2023-06-22T01:45:55;7.47;;;6.55;;
21729;SDS011;11027;51.030;13.812;2023-06-22T01:48:21;8.15;;;6.72;;
21729;SDS011;11027;51.030;13.812;2023-06-22T01:50:47;9.73;;;6.70;;
21729;SDS011;11027;51.030;13.812;2023-06-22T01:53:12;6.93;;;6.25;;
21729;SDS011;11027;51.030;13.812;2023-06-22T01:55:38;7.38;;;6.63;;
21729;SDS011;11027;51.030;13.812;2023-06-22T01:58:03;7.53;;;6.78;;
21729;SDS011;11027;51.030;13.812;2023-06-22T02:00:28;6.97;;;6.28;;
21729;SDS011;11027;51.030;13.812;2023-06-22T02:03:19;8.27;;;7.05;;
21729;SDS011;11027;51.030;13.812;2023-06-22T02:05:49;9.70;;;6.95;;
21729;SDS011;11027;51.030;13.812;2023-06-22T02:08:18;9.43;;;6.95;;
21729;SDS011;11027;51.030;13.812;2023-06-22T02:10:47;8.10;;;7.32;;
21729;SDS011;11027;51.030;13.812;2023-06-22T02:13:14;13.02;;;6.97;;
21729;SDS011;11027;51.030;13.812;2023-06-22T02:15:40;7.72;;;6.95;;
21729;SDS011;11027;51.030;13.812;2023-06-22T02:18:06;10.38;;;6.97;;
21729;SDS011;11027;51.030;13.812;2023-06-22T02:20:32;8.18;;;7.30;;
21729;SDS011;11027;51.030;13.812;2023-06-22T02:22:57;7.95;;;7.15;;
21729;SDS011;11027;51.030;13.812;2023-06-22T02:25:22;8.82;;;7.30;;
21729;SDS011;11027;51.030;13.812;2023-06-22T02:27:48;7.90;;;7.18;;
21729;SDS011;11027;51.030;13.812;2023-06-22T02:30:13;7.60;;;6.82;;
21729;SDS011;11027;51.030;13.812;2023-06-22T02:32:41;9.50;;;7.25;;
21729;SDS011;11027;51.030;13.812;2023-06-22T02:35:07;8.52;;;7.65;;
21729;SDS011;11027;51.030;13.812;2023-06-22T02:37:33;12.05;;;6.97;;
21729;SDS011;11027;51.030;13.812;2023-06-22T02:40:00;9.05;;;6.82;;
21729;SDS011;11027;51.030;13.812;2023-06-22T02:42:26;10.30;;;7.13;;
21729;SDS011;11027;51.030;13.812;2023-06-22T02:44:51;8.15;;;7.35;;
21729;SDS011;11027;51.030;13.812;2023-06-22T02:47:17;9.63;;;7.15;;
21729;SDS011;11027;51.030;13.812;2023-06-22T02:49:42;7.15;;;6.43;;
21729;SDS011;11027;51.030;13.812;2023-06-22T02:52:09;8.18;;;7.00;;
21729;SDS011;11027;51.030;13.812;2023-06-22T02:54:35;9.43;;;7.07;;
21729;SDS011;11027;51.030;13.812;2023-06-22T02:57:00;8.77;;;6.97;;
21729;SDS011;11027;51.030;13.812;2023-06-22T02:59:27;10.45;;;8.18;;
21729;SDS011;11027;51.030;13.812;2023-06-22T03:01:53;10.15;;;7.53;;
21729;SDS011;11027;51.030;13.812;2023-06-22T03:04:18;9.32;;;7.45;;
21729;SDS011;11027;51.030;13.812;2023-06-22T03:06:43;8.32;;;7.40;;
21729;SDS011;11027;51.030;13.812;2023-06-22T03:09:08;12.32;;;8.18;;
21729;SDS011;11027;51.030;13.812;2023-06-22T03:11:34;8.27;;;7.35;;
21729;SDS011;11027;51.030;13.812;2023-06-22T03:14:00;9.05;;;7.30;;
21729;SDS011;11027;51.030;13.812;2023-06-22T03:16:26;9.02;;;7.03;;
21729;SDS011;11027;51.030;13.812;2023-06-22T03:18:52;8.20;;;7.38;;
21729;SDS011;11027;51.030;13.812;2023-06-22T03:21:21;9.60;;;7.60;;
21729;SDS011;11027;51.030;13.812;2023-06-22T03:23:47;7.82;;;7.10;;
21729;SDS011;11027;51.030;13.812;2023-06-22T03:26:12;10.75;;;7.47;;
21729;SDS011;11027;51.030;13.812;2023-06-22T03:28:38;8.93;;;7.20;;
21729;SDS011;11027;51.030;13.812;2023-06-22T03:31:03;10.20;;;7.40;;
21729;SDS011;11027;51.030;13.812;2023-06-22T03:33:31;9.38;;;7.22;;
21729;SDS011;11027;51.030;13.812;2023-06-22T03:35:56;7.63;;;6.68;;
21729;SDS011;11027;51.030;13.812;2023-06-22T03:38:22;7.85;;;7.07;;
21729;SDS011;11027;51.030;13.812;2023-06-22T03:40:47;8.50;;;6.68;;
21729;SDS011;11027;51.030;13.812;2023-06-22T03:43:12;9.00;;;7.05;;
21729;SDS011;11027;51.030;13.812;2023-06-22T03:45:37;8.27;;;6.43;;
21729;SDS011;11027;51.030;13.812;2023-06-22T03:48:03;9.52;;;7.18;;
21729;SDS011;11027;51.030;13.812;2023-06-22T03:50:28;10.27;;;7.47;;
21729;SDS011;11027;51.030;13.812;2023-06-22T03:52:54;9.05;;;6.90;;
21729;SDS011;11027;51.030;13.812;2023-06-22T03:55:20;8.63;;;7.60;;
21729;SDS011;11027;51.030;13.812;2023-06-22T03:57:45;8.18;;;7.38;;
21729;SDS011;11027;51.030;13.812;2023-06-22T04:00:11;12.35;;;7.35;;
21729;SDS011;11027;51.030;13.812;2023-06-22T04:02:36;9.77;;;7.57;;
21729;SDS011;11027;51.030;13.812;2023-06-22T04:05:01;11.15;;;7.40;;
21729;SDS011;11027;51.030;13.812;2023-06-22T04:07:27;9.45;;;7.72;;
21729;SDS011;11027;51.030;13.812;2023-06-22T04:09:52;11.60;;;7.65;;
21729;SDS011;11027;51.030;13.812;2023-06-22T04:12:17;12.20;;;7.30;;
21729;SDS011;11027;51.030;13.812;2023-06-22T04:14:43;9.90;;;6.93;;
21729;SDS011;11027;51.030;13.812;2023-06-22T04:17:08;18.63;;;7.40;;
21729;SDS011;11027;51.030;13.812;2023-06-22T04:19:33;10.82;;;7.85;;
21729;SDS011;11027;51.030;13.812;2023-06-22T04:21:58;9.13;;;7.70;;
21729;SDS011;11027;51.030;13.812;2023-06-22T04:24:24;9.48;;;7.80;;
21729;SDS011;11027;51.030;13.812;2023-06-22T04:26:49;7.70;;;6.95;;
21729;SDS011;11027;51.030;13.812;2023-06-22T04:29:18;11.25;;;7.75;;
21729;SDS011;11027;51.030;13.812;2023-06-22T04:31:43;8.65;;;7.75;;
21729;SDS011;11027;51.030;13.812;2023-06-22T04:34:09;10.95;;;7.95;;
21729;SDS011;11027;51.030;13.812;2023-06-22T04:36:40;15.38;;;7.72;;
21729;SDS011;11027;51.030;13.812;2023-06-22T04:41:32;11.32;;;7.72;;
21729;SDS011;11027;51.030;13.812;2023-06-22T04:44:07;9.10;;;8.10;;
21729;SDS011;11027;51.030;13.812;2023-06-22T04:46:36;9.73;;;7.88;;
21729;SDS011;11027;51.030;13.812;2023-06-22T04:49:09;13.80;;;7.90;;
21729;SDS011;11027;51.030;13.812;2023-06-22T04:51:39;8.38;;;7.53;;
21729;SDS011;11027;51.030;13.812;2023-06-22T04:54:05;10.82;;;8.18;;
21729;SDS011;11027;51.030;13.812;2023-06-22T04:56:31;9.63;;;7.57;;
21729;SDS011;11027;51.030;13.812;2023-06-22T04:58:56;10.55;;;8.60;;
21729;SDS011;11027;51.030;13.812;2023-06-22T05:01:22;9.68;;;8.18;;
21729;SDS011;11027;51.030;13.812;2023-06-22T05:03:48;8.77;;;7.97;;
21729;SDS011;11027;51.030;13.812;2023-06-22T05:06:14;9.63;;;7.88;;
21729;SDS011;11027;51.030;13.812;2023-06-22T05:08:39;9.45;;;7.50;;
21729;SDS011;11027;51.030;13.812;2023-06-22T05:11:05;8.45;;;7.65;;
21729;SDS011;11027;51.030;13.812;2023-06-22T05:13:30;13.70;;;7.55;;
21729;SDS011;11027;51.030;13.812;2023-06-22T05:15:55;10.38;;;8.07;;
21729;SDS011;11027;51.030;13.812;2023-06-22T05:18:26;8.65;;;7.75;;
21729;SDS011;11027;51.030;13.812;2023-06-22T05:20:52;12.55;;;8.13;;
21729;SDS011;11027;51.030;13.812;2023-06-22T05:23:18;9.60;;;6.95;;
21729;SDS011;11027;51.030;13.812;2023-06-22T05:25:43;8.77;;;7.85;;
21729;SDS011;11027;51.030;13.812;2023-06-22T05:28:09;8.65;;;7.57;;
21729;SDS011;11027;51.030;13.812;2023-06-22T05:30:36;11.13;;;7.68;;
21729;SDS011;11027;51.030;13.812;2023-06-22T05:33:01;8.25;;;7.22;;
21729;SDS011;11027;51.030;13.812;2023-06-22T05:35:26;12.88;;;7.60;;
21729;SDS011;11027;51.030;13.812;2023-06-22T05:37:52;8.32;;;7.35;;
21729;SDS011;11027;51.030;13.812;2023-06-22T05:40:17;8.25;;;7.43;;
21729;SDS011;11027;51.030;13.812;2023-06-22T05:42:42;9.65;;;6.97;;
21729;SDS011;11027;51.030;13.812;2023-06-22T05:45:08;11.30;;;7.05;;
21729;SDS011;11027;51.030;13.812;2023-06-22T05:47:33;11.32;;;7.22;;
21729;SDS011;11027;51.030;13.812;2023-06-22T05:49:58;10.23;;;7.93;;
21729;SDS011;11027;51.030;13.812;2023-06-22T05:52:24;8.30;;;7.43;;
21729;SDS011;11027;51.030;13.812;2023-06-22T05:54:49;9.05;;;7.43;;
21729;SDS011;11027;51.030;13.812;2023-06-22T05:57:14;10.90;;;7.80;;
21729;SDS011;11027;51.030;13.812;2023-06-22T05:59:40;10.73;;;7.80;;
21729;SDS011;11027;51.030;13.812;2023-06-22T06:02:05;8.45;;;7.60;;
21729;SDS011;11027;51.030;13.812;2023-06-22T06:04:30;10.77;;;7.93;;
21729;SDS011;11027;51.030;13.812;2023-06-22T06:06:55;9.77;;;8.02;;
21729;SDS011;11027;51.030;13.812;2023-06-22T06:09:21;8.65;;;7.75;;
21729;SDS011;11027;51.030;13.812;2023-06-22T06:11:46;9.18;;;7.80;;
21729;SDS011;11027;51.030;13.812;2023-06-22T06:14:11;9.60;;;7.68;;
21729;SDS011;11027;51.030;13.812;2023-06-22T06:16:37;10.07;;;7.75;;
21729;SDS011;11027;51.030;13.812;2023-06-22T06:19:02;11.15;;;8.13;;
21729;SDS011;11027;51.030;13.812;2023-06-22T06:21:27;8.85;;;7.35;;
21729;SDS011;11027;51.030;13.812;2023-06-22T06:23:52;8.23;;;7.30;;
21729;SDS011;11027;51.030;13.812;2023-06-22T06:26:18;8.00;;;7.20;;
21729;SDS011;11027;51.030;13.812;2023-06-22T06:28:52;8.98;;;6.53;;
21729;SDS011;11027;51.030;13.812;2023-06-22T06:31:18;11.98;;;7.40;;
21729;SDS011;11027;51.030;13.812;2023-06-22T06:33:43;7.72;;;6.72;;
21729;SDS011;11027;51.030;13.812;2023-06-22T06:36:08;8.52;;;6.53;;
21729;SDS011;11027;51.030;13.812;2023-06-22T06:38:33;8.05;;;7.25;;
21729;SDS011;11027;51.030;13.812;2023-06-22T06:40:59;10.52;;;7.05;;
21729;SDS011;11027;51.030;13.812;2023-06-22T06:43:24;13.23;;;6.85;;
21729;SDS011;11027;51.030;13.812;2023-06-22T06:45:50;9.70;;;6.55;;
21729;SDS011;11027;51.030;13.812;2023-06-22T06:48:15;9.77;;;7.32;;
21729;SDS011;11027;51.030;13.812;2023-06-22T06:50:41;9.98;;;6.90;;
21729;SDS011;11027;51.030;13.812;2023-06-22T06:53:08;10.57;;;7.15;;
21729;SDS011;11027;51.030;13.812;2023-06-22T06:55:34;7.85;;;7.05;;
21729;SDS011;11027;51.030;13.812;2023-06-22T06:57:59;7.68;;;6.63;;
21729;SDS011;11027;51.030;13.812;2023-06-22T07:00:24;11.40;;;7.30;;
21729;SDS011;11027;51.030;13.812;2023-06-22T07:02:50;14.65;;;7.10;;
21729;SDS011;11027;51.030;13.812;2023-06-22T07:05:16;9.07;;;6.70;;
21729;SDS011;11027;51.030;13.812;2023-06-22T07:07:41;11.73;;;7.28;;
21729;SDS011;11027;51.030;13.812;2023-06-22T07:10:07;8.45;;;7.25;;
21729;SDS011;11027;51.030;13.812;2023-06-22T07:12:33;8.20;;;7.40;;
21729;SDS011;11027;51.030;13.812;2023-06-22T07:15:05;11.40;;;7.25;;
21729;SDS011;11027;51.030;13.812;2023-06-22T07:17:36;8.45;;;7.65;;
21729;SDS011;11027;51.030;13.812;2023-06-22T07:20:02;9.13;;;7.45;;
21729;SDS011;11027;51.030;13.812;2023-06-22T07:22:34;7.95;;;7.10;;
21729;SDS011;11027;51.030;13.812;2023-06-22T07:25:00;13.10;;;7.70;;
21729;SDS011;11027;51.030;13.812;2023-06-22T07:27:26;10.20;;;7.72;;
21729;SDS011;11027;51.030;13.812;2023-06-22T07:29:51;11.52;;;7.35;;
21729;SDS011;11027;51.030;13.812;2023-06-22T07:32:16;13.15;;;6.95;;
21729;SDS011;11027;51.030;13.812;2023-06-22T07:34:42;9.73;;;7.13;;
21729;SDS011;11027;51.030;13.812;2023-06-22T07:37:08;7.65;;;6.85;;
21729;SDS011;11027;51.030;13.812;2023-06-22T07:39:33;8.77;;;7.50;;
21729;SDS011;11027;51.030;13.812;2023-06-22T07:41:59;7.93;;;7.10;;
21729;SDS011;11027;51.030;13.812;2023-06-22T07:44:24;7.32;;;6.63;;
21729;SDS011;11027;51.030;13.812;2023-06-22T07:46:50;10.25;;;6.72;;
21729;SDS011;11027;51.030;13.812;2023-06-22T07:49:16;11.70;;;7.38;;
21729;SDS011;11027;51.030;13.812;2023-06-22T07:51:42;9.20;;;7.10;;
21729;SDS011;11027;51.030;13.812;2023-06-22T07:54:08;7.72;;;7.03;;
21729;SDS011;11027;51.030;13.812;2023-06-22T07:56:34;12.55;;;7.22;;
21729;SDS011;11027;51.030;13.812;2023-06-22T07:58:59;7.80;;;7.00;;
21729;SDS011;11027;51.030;13.812;2023-06-22T08:01:25;8.15;;;7.32;;
21729;SDS011;11027;51.030;13.812;2023-06-22T08:03:51;7.63;;;6.93;;
21729;SDS011;11027;51.030;13.812;2023-06-22T08:06:16;7.40;;;6.70;;
21729;SDS011;11027;51.030;13.812;2023-06-22T08:08:41;7.22;;;6.53;;
21729;SDS011;11027;51.030;13.812;2023-06-22T08:11:07;8.65;;;7.75;;
21729;SDS011;11027;51.030;13.812;2023-06-22T08:13:33;10.75;;;6.93;;
21729;SDS011;11027;51.030;13.812;2023-06-22T08:15:58;7.75;;;6.53;;
21729;SDS011;11027;51.030;13.812;2023-06-22T08:18:24;7.20;;;6.50;;
21729;SDS011;11027;51.030;13.812;2023-06-22T08:20:49;6.20;;;5.60;;
21729;SDS011;11027;51.030;13.812;2023-06-22T08:23:15;6.80;;;5.68;;
21729;SDS011;11027;51.030;13.812;2023-06-22T08:25:40;10.40;;;6.38;;
21729;SDS011;11027;51.030;13.812;2023-06-22T08:28:05;6.20;;;5.70;;
21729;SDS011;11027;51.030;13.812;2023-06-22T08:30:30;6.57;;;5.57;;
21729;SDS011;11027;51.030;13.812;2023-06-22T08:32:56;6.97;;;6.18;;
21729;SDS011;11027;51.030;13.812;2023-06-22T08:35:22;9.05;;;6.00;;
21729;SDS011;11027;51.030;13.812;2023-06-22T08:37:48;7.03;;;5.45;;
21729;SDS011;11027;51.030;13.812;2023-06-22T08:40:17;10.93;;;6.20;;
21729;SDS011;11027;51.030;13.812;2023-06-22T08:42:44;7.13;;;5.65;;
21729;SDS011;11027;51.030;13.812;2023-06-22T08:45:11;5.63;;;5.13;;
21729;SDS011;11027;51.030;13.812;2023-06-22T08:47:36;6.10;;;5.50;;
21729;SDS011;11027;51.030;13.812;2023-06-22T08:50:02;5.63;;;5.20;;
21729;SDS011;11027;51.030;13.812;2023-06-22T08:52:28;8.80;;;5.50;;
21729;SDS011;11027;51.030;13.812;2023-06-22T08:54:54;5.70;;;5.15;;
21729;SDS011;11027;51.030;13.812;2023-06-22T08:57:20;6.03;;;5.53;;
21729;SDS011;11027;51.030;13.812;2023-06-22T08:59:46;7.30;;;6.10;;
21729;SDS011;11027;51.030;13.812;2023-06-22T09:02:11;6.93;;;6.15;;
21729;SDS011;11027;51.030;13.812;2023-06-22T09:04:36;13.30;;;6.70;;
21729;SDS011;11027;51.030;13.812;2023-06-22T09:07:02;15.25;;;10.10;;
21729;SDS011;11027;51.030;13.812;2023-06-22T09:09:27;7.15;;;6.38;;
21729;SDS011;11027;51.030;13.812;2023-06-22T09:11:52;7.32;;;5.53;;
21729;SDS011;11027;51.030;13.812;2023-06-22T09:14:18;7.03;;;5.75;;
21729;SDS011;11027;51.030;13.812;2023-06-22T09:16:43;6.13;;;5.57;;
21729;SDS011;11027;51.030;13.812;2023-06-22T09:19:09;6.25;;;5.65;;
21729;SDS011;11027;51.030;13.812;2023-06-22T09:21:34;7.20;;;5.90;;
21729;SDS011;11027;51.030;13.812;2023-06-22T09:23:59;6.10;;;5.40;;
21729;SDS011;11027;51.030;13.812;2023-06-22T09:26:24;6.53;;;5.83;;
21729;SDS011;11027;51.030;13.812;2023-06-22T09:28:50;5.85;;;5.35;;
21729;SDS011;11027;51.030;13.812;2023-06-22T09:31:15;8.13;;;5.57;;
21729;SDS011;11027;51.030;13.812;2023-06-22T09:33:41;10.18;;;5.25;;
21729;SDS011;11027;51.030;13.812;2023-06-22T09:36:07;6.80;;;5.00;;
21729;SDS011;11027;51.030;13.812;2023-06-22T09:38:38;5.75;;;5.10;;
21729;SDS011;11027;51.030;13.812;2023-06-22T09:43:31;7.45;;;5.45;;
21729;SDS011;11027;51.030;13.812;2023-06-22T09:46:00;6.15;;;5.55;;
21729;SDS011;11027;51.030;13.812;2023-06-22T09:48:27;5.68;;;5.00;;
21729;SDS011;11027;51.030;13.812;2023-06-22T09:50:52;7.00;;;4.93;;
21729;SDS011;11027;51.030;13.812;2023-06-22T09:53:17;6.80;;;5.93;;
21729;SDS011;11027;51.030;13.812;2023-06-22T09:55:42;5.03;;;4.63;;
21729;SDS011;11027;51.030;13.812;2023-06-22T09:58:08;6.33;;;5.30;;
21729;SDS011;11027;51.030;13.812;2023-06-22T10:00:33;7.47;;;5.20;;
21729;SDS011;11027;51.030;13.812;2023-06-22T10:02:59;7.45;;;5.10;;
21729;SDS011;11027;51.030;13.812;2023-06-22T10:05:24;6.18;;;5.53;;
21729;SDS011;11027;51.030;13.812;2023-06-22T10:07:50;5.43;;;4.90;;
21729;SDS011;11027;51.030;13.812;2023-06-22T10:10:15;7.70;;;5.18;;
21729;SDS011;11027;51.030;13.812;2023-06-22T10:12:41;7.90;;;6.57;;
21729;SDS011;11027;51.030;13.812;2023-06-22T10:15:10;5.72;;;5.22;;
21729;SDS011;11027;51.030;13.812;2023-06-22T10:17:36;5.32;;;4.82;;
21729;SDS011;11027;51.030;13.812;2023-06-22T10:20:01;8.10;;;5.22;;
21729;SDS011;11027;51.030;13.812;2023-06-22T10:22:31;7.00;;;5.55;;
21729;SDS011;11027;51.030;13.812;2023-06-22T10:24:56;8.77;;;5.23;;
21729;SDS011;11027;51.030;13.812;2023-06-22T10:27:22;5.93;;;5.20;;
21729;SDS011;11027;51.030;13.812;2023-06-22T10:29:47;8.20;;;5.70;;
21729;SDS011;11027;51.030;13.812;2023-06-22T10:32:12;8.23;;;6.10;;
21729;SDS011;11027;51.030;13.812;2023-06-22T10:34:38;9.15;;;5.32;;
21729;SDS011;11027;51.030;13.812;2023-06-22T10:37:03;6.60;;;5.32;;
21729;SDS011;11027;51.030;13.812;2023-06-22T10:39:28;7.00;;;5.38;;
21729;SDS011;11027;51.030;13.812;2023-06-22T10:41:54;8.37;;;5.97;;
21729;SDS011;11027;51.030;13.812;2023-06-22T10:44:20;13.20;;;5.85;;
21729;SDS011;11027;51.030;13.812;2023-06-22T10:46:46;6.78;;;5.10;;
21729;SDS011;11027;51.030;13.812;2023-06-22T10:49:11;5.70;;;5.20;;
21729;SDS011;11027;51.030;13.812;2023-06-22T10:51:36;5.70;;;5.03;;
21729;SDS011;11027;51.030;13.812;2023-06-22T10:54:01;9.85;;;5.32;;
21729;SDS011;11027;51.030;13.812;2023-06-22T10:56:29;6.18;;;5.30;;
21729;SDS011;11027;51.030;13.812;2023-06-22T10:58:54;6.75;;;6.05;;
21729;SDS011;11027;51.030;13.812;2023-06-22T11:01:20;8.60;;;5.38;;
21729;SDS011;11027;51.030;13.812;2023-06-22T11:03:46;8.80;;;5.43;;
21729;SDS011;11027;51.030;13.812;2023-06-22T11:06:11;9.00;;;5.60;;
21729;SDS011;11027;51.030;13.812;2023-06-22T11:08:36;7.57;;;5.67;;
21729;SDS011;11027;51.030;13.812;2023-06-22T11:11:01;5.90;;;5.30;;
21729;SDS011;11027;51.030;13.812;2023-06-22T11:13:27;7.03;;;5.43;;
21729;SDS011;11027;51.030;13.812;2023-06-22T11:15:52;6.72;;;5.38;;
21729;SDS011;11027;51.030;13.812;2023-06-22T11:18:17;7.03;;;5.18;;
21729;SDS011;11027;51.030;13.812;2023-06-22T11:20:42;6.50;;;5.43;;
21729;SDS011;11027;51.030;13.812;2023-06-22T11:23:08;7.30;;;6.28;;
21729;SDS011;11027;51.030;13.812;2023-06-22T11:25:33;5.95;;;5.32;;
21729;SDS011;11027;51.030;13.812;2023-06-22T11:28:01;5.88;;;5.00;;
21729;SDS011;11027;51.030;13.812;2023-06-22T11:30:27;8.05;;;4.88;;
21729;SDS011;11027;51.030;13.812;2023-06-22T11:32:52;5.15;;;4.65;;
21729;SDS011;11027;51.030;13.812;2023-06-22T11:35:18;5.93;;;5.32;;
21729;SDS011;11027;51.030;13.812;2023-06-22T11:37:43;6.80;;;5.27;;
21729;SDS011;11027;51.030;13.812;2023-06-22T11:40:08;5.27;;;4.77;;
21729;SDS011;11027;51.030;13.812;2023-06-22T11:42:34;5.80;;;5.18;;
21729;SDS011;11027;51.030;13.812;2023-06-22T11:45:00;5.70;;;5.20;;
21729;SDS011;11027;51.030;13.812;2023-06-22T11:47:25;6.85;;;5.05;;
21729;SDS011;11027;51.030;13.812;2023-06-22T11:49:50;5.07;;;4.68;;
21729;SDS011;11027;51.030;13.812;2023-06-22T11:52:16;6.32;;;4.70;;
21729;SDS011;11027;51.030;13.812;2023-06-22T11:54:42;4.80;;;4.32;;
21729;SDS011;11027;51.030;13.812;2023-06-22T11:57:08;5.70;;;4.63;;
21729;SDS011;11027;51.030;13.812;2023-06-22T11:59:33;7.28;;;5.15;;
21729;SDS011;11027;51.030;13.812;2023-06-22T12:01:59;6.93;;;5.25;;
21729;SDS011;11027;51.030;13.812;2023-06-22T12:04:24;5.18;;;4.78;;
21729;SDS011;11027;51.030;13.812;2023-06-22T12:06:49;5.82;;;5.07;;
21729;SDS011;11027;51.030;13.812;2023-06-22T12:09:15;7.05;;;5.10;;
21729;SDS011;11027;51.030;13.812;2023-06-22T12:11:40;5.30;;;4.80;;
21729;SDS011;11027;51.030;13.812;2023-06-22T12:14:05;7.43;;;5.43;;
21729;SDS011;11027;51.030;13.812;2023-06-22T12:16:30;10.52;;;5.45;;
21729;SDS011;11027;51.030;13.812;2023-06-22T12:18:56;8.02;;;5.35;;
21729;SDS011;11027;51.030;13.812;2023-06-22T12:21:21;9.00;;;5.05;;
21729;SDS011;11027;51.030;13.812;2023-06-22T12:23:46;10.30;;;5.28;;
21729;SDS011;11027;51.030;13.812;2023-06-22T12:26:11;6.17;;;4.80;;
21729;SDS011;11027;51.030;13.812;2023-06-22T12:28:37;5.40;;;4.90;;
21729;SDS011;11027;51.030;13.812;2023-06-22T12:31:02;5.38;;;4.85;;
21729;SDS011;11027;51.030;13.812;2023-06-22T12:33:27;10.43;;;4.90;;
21729;SDS011;11027;51.030;13.812;2023-06-22T12:35:52;6.43;;;4.67;;
21729;SDS011;11027;51.030;13.812;2023-06-22T12:38:18;5.53;;;4.93;;
21729;SDS011;11027;51.030;13.812;2023-06-22T12:40:43;7.80;;;5.00;;
21729;SDS011;11027;51.030;13.812;2023-06-22T12:43:08;7.50;;;5.03;;
21729;SDS011;11027;51.030;13.812;2023-06-22T12:45:33;9.45;;;4.97;;
21729;SDS011;11027;51.030;13.812;2023-06-22T12:47:59;5.15;;;4.50;;
21729;SDS011;11027;51.030;13.812;2023-06-22T12:50:25;5.90;;;4.72;;
21729;SDS011;11027;51.030;13.812;2023-06-22T12:52:50;10.15;;;5.18;;
21729;SDS011;11027;51.030;13.812;2023-06-22T12:55:15;8.00;;;5.05;;
21729;SDS011;11027;51.030;13.812;2023-06-22T12:57:40;8.17;;;5.13;;
21729;SDS011;11027;51.030;13.812;2023-06-22T13:00:06;5.28;;;4.78;;
21729;SDS011;11027;51.030;13.812;2023-06-22T13:02:33;6.70;;;4.63;;
21729;SDS011;11027;51.030;13.812;2023-06-22T13:04:58;6.35;;;4.80;;
21729;SDS011;11027;51.030;13.812;2023-06-22T13:07:24;6.47;;;4.53;;
21729;SDS011;11027;51.030;13.812;2023-06-22T13:09:49;5.83;;;5.13;;
21729;SDS011;11027;51.030;13.812;2023-06-22T13:12:19;5.82;;;4.80;;
21729;SDS011;11027;51.030;13.812;2023-06-22T13:14:45;4.93;;;4.53;;
21729;SDS011;11027;51.030;13.812;2023-06-22T13:17:11;5.28;;;4.78;;
21729;SDS011;11027;51.030;13.812;2023-06-22T13:19:37;4.82;;;4.43;;
21729;SDS011;11027;51.030;13.812;2023-06-22T13:22:02;6.03;;;4.88;;
21729;SDS011;11027;51.030;13.812;2023-06-22T13:24:28;7.20;;;4.72;;
21729;SDS011;11027;51.030;13.812;2023-06-22T13:26:54;8.10;;;4.78;;
21729;SDS011;11027;51.030;13.812;2023-06-22T13:29:19;8.38;;;4.50;;
21729;SDS011;11027;51.030;13.812;2023-06-22T13:31:45;6.07;;;4.40;;
21729;SDS011;11027;51.030;13.812;2023-06-22T13:34:10;7.15;;;4.80;;
21729;SDS011;11027;51.030;13.812;2023-06-22T13:36:35;6.03;;;4.70;;
21729;SDS011;11027;51.030;13.812;2023-06-22T13:39:00;7.93;;;4.97;;
21729;SDS011;11027;51.030;13.812;2023-06-22T13:41:26;4.38;;;3.97;;
21729;SDS011;11027;51.030;13.812;2023-06-22T13:43:51;7.13;;;4.67;;
21729;SDS011;11027;51.030;13.812;2023-06-22T13:46:16;5.20;;;4.47;;
21729;SDS011;11027;51.030;13.812;2023-06-22T13:48:42;8.00;;;4.60;;
21729;SDS011;11027;51.030;13.812;2023-06-22T13:51:07;5.03;;;4.60;;
21729;SDS011;11027;51.030;13.812;2023-06-22T13:53:32;4.90;;;4.23;;
21729;SDS011;11027;51.030;13.812;2023-06-22T13:55:57;5.00;;;4.50;;
21729;SDS011;11027;51.030;13.812;2023-06-22T13:58:23;7.07;;;4.70;;
21729;SDS011;11027;51.030;13.812;2023-06-22T14:00:48;6.10;;;4.50;;
21729;SDS011;11027;51.030;13.812;2023-06-22T14:03:14;7.68;;;5.18;;
21729;SDS011;11027;51.030;13.812;2023-06-22T14:05:41;7.82;;;5.00;;
21729;SDS011;11027;51.030;13.812;2023-06-22T14:08:06;5.35;;;4.35;;
21729;SDS011;11027;51.030;13.812;2023-06-22T14:10:31;6.57;;;4.13;;
21729;SDS011;11027;51.030;13.812;2023-06-22T14:12:57;6.95;;;4.82;;
21729;SDS011;11027;51.030;13.812;2023-06-22T14:15:22;5.53;;;4.68;;
21729;SDS011;11027;51.030;13.812;2023-06-22T14:17:47;7.18;;;5.00;;
21729;SDS011;11027;51.030;13.812;2023-06-22T14:20:12;7.07;;;4.80;;
21729;SDS011;11027;51.030;13.812;2023-06-22T14:22:38;5.68;;;5.15;;
21729;SDS011;11027;51.030;13.812;2023-06-22T14:25:05;5.53;;;4.93;;
21729;SDS011;11027;51.030;13.812;2023-06-22T14:27:30;8.82;;;5.45;;
21729;SDS011;11027;51.030;13.812;2023-06-22T14:29:56;4.93;;;4.47;;
21729;SDS011;11027;51.030;13.812;2023-06-22T14:32:21;6.57;;;4.40;;
21729;SDS011;11027;51.030;13.812;2023-06-22T14:34:47;5.32;;;4.53;;